createdAt,value
2018-04-12T00:00:08.804Z,97.20
2018-04-12T00:02:36.409Z,97.10
2018-04-12T00:05:03.951Z,97.30
2018-04-12T00:07:32.216Z,97.20
2018-04-12T00:10:00.507Z,97.20
2018-04-12T00:12:28.079Z,97.10
2018-04-12T00:14:55.849Z,97.40
2018-04-12T00:17:23.361Z,97.40
2018-04-12T00:19:50.860Z,97.40
2018-04-12T00:22:18.406Z,97.40
2018-04-12T00:24:46.676Z,97.50
2018-04-12T00:27:15.047Z,97.50
2018-04-12T00:29:42.537Z,97.50
2018-04-12T00:32:10.043Z,97.50
2018-04-12T00:34:37.640Z,97.30
2018-04-12T00:37:05.954Z,97.40
2018-04-12T00:39:33.567Z,97.30
2018-04-12T00:42:01.853Z,97.40
2018-04-12T00:44:30.133Z,97.40
2018-04-12T00:46:58.396Z,97.60
2018-04-12T00:49:26.709Z,97.60
2018-04-12T00:51:54.966Z,97.90
2018-04-12T00:54:22.461Z,97.90
2018-04-12T00:56:50.118Z,97.90
2018-04-12T00:59:18.352Z,97.90
2018-04-12T01:01:46.618Z,96.50
2018-04-12T01:04:14.944Z,97.70
2018-04-12T01:06:42.436Z,97.40
2018-04-12T01:09:10.018Z,97.30
2018-04-12T01:11:38.281Z,97.90
2018-04-12T01:14:05.793Z,97.50
2018-04-12T01:16:33.320Z,98.00
2018-04-12T01:19:01.619Z,97.90
2018-04-12T01:21:29.113Z,98.00
2018-04-12T01:23:56.709Z,97.50
2018-04-12T01:26:24.236Z,97.70
2018-04-12T01:28:51.767Z,97.80
2018-04-12T01:31:19.292Z,97.80
2018-04-12T01:33:47.571Z,97.20
2018-04-12T01:36:15.846Z,97.10
2018-04-12T01:38:44.117Z,97.30
2018-04-12T01:41:12.403Z,97.70
2018-04-12T01:43:40.778Z,97.90
2018-04-12T01:46:09.050Z,97.70
2018-04-12T01:48:37.425Z,97.60
2018-04-12T01:51:05.689Z,96.50
2018-04-12T01:53:33.224Z,97.30
2018-04-12T01:56:01.524Z,98.10
2018-04-12T01:58:29.048Z,98.00
2018-04-12T02:00:56.557Z,98.40
2018-04-12T02:03:24.849Z,98.20
2018-04-12T02:05:52.352Z,98.20
2018-04-12T02:08:19.853Z,98.30
2018-04-12T02:10:48.123Z,97.80
2018-04-12T02:13:16.404Z,98.10
2018-04-12T02:15:44.683Z,98.50
2018-04-12T02:18:12.964Z,98.50
2018-04-12T02:20:40.614Z,98.50
2018-04-12T02:23:08.864Z,97.20
2018-04-12T02:25:36.388Z,97.20
2018-04-12T02:28:03.884Z,98.20
2018-04-12T02:30:31.408Z,97.20
2018-04-12T02:32:58.905Z,96.80
2018-04-12T02:35:26.408Z,97.10
2018-04-12T02:37:53.880Z,97.50
2018-04-12T02:40:21.360Z,97.10
2018-04-12T02:42:48.863Z,97.30
2018-04-12T02:45:17.150Z,97.80
2018-04-12T02:47:45.516Z,96.90
2018-04-12T02:50:13.776Z,96.70
2018-04-12T02:52:41.259Z,96.70
2018-04-12T02:55:08.799Z,96.70
2018-04-12T02:57:36.298Z,96.50
2018-04-12T03:00:03.811Z,96.40
2018-04-12T03:02:32.116Z,97.20
2018-04-12T03:04:59.611Z,97.00
2018-04-12T03:07:27.086Z,96.80
2018-04-12T03:09:54.667Z,96.90
2018-04-12T03:12:22.950Z,97.80
2018-04-12T03:14:51.231Z,97.00
2018-04-12T03:17:19.477Z,97.70
2018-04-12T03:19:47.365Z,97.60
2018-04-12T03:22:15.617Z,97.00
2018-04-12T03:24:43.122Z,97.00
2018-04-12T03:27:10.662Z,97.20
2018-04-12T03:29:38.911Z,99.40
2018-04-12T03:32:06.704Z,99.10
2018-04-12T03:34:34.944Z,97.70
2018-04-12T03:37:02.541Z,97.60
2018-04-12T03:39:30.818Z,97.10
2018-04-12T03:41:59.095Z,96.70
2018-04-12T03:44:27.365Z,96.20
2018-04-12T03:46:55.677Z,96.20
2018-04-12T03:49:23.167Z,96.20
2018-04-12T03:51:50.657Z,96.50
2018-04-12T03:54:18.916Z,96.10
2018-04-12T03:56:46.460Z,96.10
2018-04-12T03:59:13.951Z,96.00
2018-04-12T04:01:42.250Z,96.50
2018-04-12T04:04:10.497Z,96.30
2018-04-12T04:06:38.882Z,96.20
2018-04-12T04:09:07.159Z,96.00
2018-04-12T04:11:35.408Z,96.70
2018-04-12T04:14:02.895Z,96.70
2018-04-12T04:16:43.040Z,96.90
2018-04-12T04:19:23.306Z,96.90
2018-04-12T04:21:51.698Z,98.20
2018-04-12T04:24:19.199Z,98.20
2018-04-12T04:26:46.803Z,97.60
2018-04-12T04:29:15.090Z,96.60
2018-04-12T04:31:42.573Z,96.60
2018-04-12T04:34:10.105Z,96.90
2018-04-12T04:36:38.585Z,96.20
2018-04-12T04:39:06.957Z,96.00
2018-04-12T04:41:35.268Z,96.30
2018-04-12T04:44:02.760Z,96.20
2018-04-12T04:46:30.281Z,96.20
2018-04-12T04:48:57.804Z,96.70
2018-04-12T04:51:26.081Z,96.30
2018-04-12T04:53:54.363Z,96.00
2018-04-12T04:56:22.608Z,95.90
2018-04-12T04:58:50.500Z,95.80
2018-04-12T05:01:18.744Z,95.80
2018-04-12T05:03:46.657Z,95.70
2018-04-12T05:06:14.157Z,95.20
2018-04-12T05:08:41.630Z,95.30
2018-04-12T05:11:09.119Z,94.90
2018-04-12T05:13:37.372Z,95.10
2018-04-12T05:16:04.874Z,95.10
2018-04-12T05:18:32.356Z,94.90
2018-04-12T05:21:00.276Z,95.00
2018-04-12T05:23:28.528Z,95.20
2018-04-12T05:25:56.011Z,95.10
2018-04-12T05:28:24.323Z,95.10
2018-04-12T05:30:51.842Z,95.00
2018-04-12T05:33:20.117Z,95.00
2018-04-12T05:35:48.396Z,95.00
2018-04-12T05:38:16.788Z,94.70
2018-04-12T05:40:45.101Z,94.60
2018-04-12T05:43:12.719Z,94.60
2018-04-12T05:45:41.003Z,95.30
2018-04-12T05:48:09.261Z,96.00
2018-04-12T05:50:37.538Z,95.40
2018-04-12T05:53:06.093Z,95.70
2018-04-12T05:55:33.581Z,95.60
2018-04-12T05:58:01.864Z,95.80
2018-04-12T06:00:30.148Z,95.60
2018-04-12T06:02:58.211Z,95.50
2018-04-12T06:05:26.504Z,95.60
2018-04-12T06:07:54.012Z,95.50
2018-04-12T06:10:21.543Z,95.40
2018-04-12T06:12:49.037Z,96.00
2018-04-12T06:15:16.621Z,95.80
2018-04-12T06:17:44.907Z,95.50
2018-04-12T06:20:13.208Z,95.80
2018-04-12T06:22:40.688Z,95.70
2018-04-12T06:25:08.200Z,95.90
2018-04-12T06:27:35.708Z,96.00
2018-04-12T06:30:03.620Z,96.40
2018-04-12T06:32:31.937Z,96.90
2018-04-12T06:34:59.434Z,96.90
2018-04-12T06:37:26.953Z,97.10
2018-04-12T06:39:54.550Z,97.30
2018-04-12T06:42:22.116Z,97.60
2018-04-12T06:44:49.632Z,98.00
2018-04-12T06:47:17.190Z,98.50
2018-04-12T06:49:44.678Z,98.80
2018-04-12T06:52:12.221Z,98.90
2018-04-12T06:54:39.786Z,98.90
2018-04-12T06:57:07.375Z,98.90
2018-04-12T06:59:35.673Z,98.70
2018-04-12T07:02:03.162Z,98.70
2018-04-12T07:04:30.676Z,98.60
2018-04-12T07:06:58.235Z,98.40
2018-04-12T07:09:26.489Z,98.60
2018-04-12T07:11:54.062Z,98.60
2018-04-12T07:14:22.322Z,99.00
2018-04-12T07:16:49.840Z,98.90
2018-04-12T07:19:17.339Z,99.30
2018-04-12T07:21:44.811Z,99.30
2018-04-12T07:24:13.095Z,99.10
2018-04-12T07:26:41.368Z,98.80
2018-04-12T07:29:09.649Z,98.90
2018-04-12T07:31:37.921Z,99.00
2018-04-12T07:34:06.239Z,98.90
2018-04-12T07:36:33.716Z,98.90
2018-04-12T07:39:01.224Z,98.70
2018-04-12T07:41:29.692Z,98.60
2018-04-12T07:43:57.944Z,98.90
2018-04-12T07:46:25.437Z,98.90
2018-04-12T07:48:53.809Z,98.20
2018-04-12T07:51:22.090Z,98.10
2018-04-12T07:53:50.404Z,97.90
2018-04-12T07:56:17.916Z,97.90
2018-04-12T07:58:46.186Z,97.70
2018-04-12T08:01:13.792Z,97.70
2018-04-12T08:03:41.333Z,97.70
2018-04-12T08:06:09.701Z,97.60
2018-04-12T08:08:37.976Z,97.40
2018-04-12T08:11:06.357Z,96.80
2018-04-12T08:13:34.610Z,96.80
2018-04-12T08:16:02.144Z,96.80
2018-04-12T08:18:29.645Z,96.80
2018-04-12T08:20:58.019Z,96.30
2018-04-12T08:23:26.288Z,95.80
2018-04-12T08:25:54.669Z,95.30
2018-04-12T08:28:22.924Z,95.10
2018-04-12T08:30:50.445Z,95.10
2018-04-12T08:33:17.966Z,94.80
2018-04-12T08:35:46.238Z,94.30
2018-04-12T08:38:14.540Z,93.60
2018-04-12T08:40:42.042Z,93.50
2018-04-12T08:43:09.652Z,92.60
2018-04-12T08:45:37.891Z,91.00
2018-04-12T08:48:05.444Z,90.90
2018-04-12T08:50:33.038Z,90.00
2018-04-12T08:53:01.329Z,85.80
2018-04-12T08:55:28.824Z,85.70
2018-04-12T08:57:56.326Z,81.60
2018-04-12T09:00:24.603Z,77.70
2018-04-12T09:02:52.875Z,76.40
2018-04-12T09:05:20.451Z,76.30
2018-04-12T09:07:48.724Z,73.10
2018-04-12T09:10:16.980Z,73.30
2018-04-12T09:12:44.589Z,73.30
2018-04-12T09:15:12.078Z,75.80
2018-04-12T09:17:39.677Z,74.80
2018-04-12T09:20:07.934Z,77.40
2018-04-12T09:22:35.521Z,77.40
2018-04-12T09:25:03.756Z,81.90
2018-04-12T09:27:32.110Z,81.50
2018-04-12T09:29:59.606Z,81.50
2018-04-12T09:32:27.929Z,79.80
2018-04-12T09:34:55.443Z,79.70
2018-04-12T09:37:23.843Z,82.40
2018-04-12T09:39:52.112Z,81.50
2018-04-12T09:42:20.373Z,80.80
2018-04-12T09:44:47.940Z,80.80
2018-04-12T09:47:16.196Z,79.90
2018-04-12T09:49:45.316Z,78.50
2018-04-12T09:52:13.606Z,77.40
2018-04-12T09:54:41.109Z,77.30
2018-04-12T09:57:08.708Z,76.20
2018-04-12T09:59:36.991Z,73.20
2018-04-12T10:02:05.279Z,70.50
2018-04-12T10:04:33.229Z,70.50
2018-04-12T10:07:05.504Z,71.30
2018-04-12T10:09:33.882Z,70.70
2018-04-12T10:12:02.139Z,72.00
2018-04-12T10:14:29.646Z,71.90
2018-04-12T10:16:57.236Z,73.40
2018-04-12T10:19:24.768Z,74.40
2018-04-12T10:21:52.290Z,74.40
2018-04-12T10:24:19.766Z,73.80
2018-04-12T10:26:47.298Z,76.00
2018-04-12T10:29:14.779Z,76.00
2018-04-12T10:31:42.292Z,76.60
2018-04-12T10:34:09.788Z,76.40
2018-04-12T10:36:38.130Z,74.50
2018-04-12T10:39:05.643Z,74.50
2018-04-12T10:41:33.186Z,73.80
2018-04-12T10:44:01.465Z,71.80
2018-04-12T10:46:28.970Z,71.80
2018-04-12T10:48:56.519Z,72.20
2018-04-12T10:51:24.027Z,72.00
2018-04-12T10:53:52.286Z,73.10
2018-04-12T10:56:19.819Z,73.10
2018-04-12T10:58:47.327Z,73.40
2018-04-12T11:01:15.601Z,73.60
2018-04-12T11:03:43.845Z,74.30
2018-04-12T11:06:12.968Z,74.20
2018-04-12T11:08:41.226Z,73.10
2018-04-12T11:11:08.755Z,73.80
2018-04-12T11:13:36.293Z,73.60
2018-04-12T11:16:03.929Z,75.40
2018-04-12T11:18:32.323Z,75.50
2018-04-12T11:21:00.581Z,73.60
2018-04-12T11:23:28.069Z,73.50
2018-04-12T11:25:55.598Z,72.70
2018-04-12T11:28:23.169Z,72.70
2018-04-12T11:30:50.660Z,71.60
2018-04-12T11:33:18.177Z,70.90
2018-04-12T11:35:46.443Z,72.40
2018-04-12T11:38:14.011Z,72.40
2018-04-12T11:40:42.338Z,73.70
2018-04-12T11:43:09.788Z,73.70
2018-04-12T11:45:37.317Z,74.40
2018-04-12T11:48:04.821Z,74.30
2018-04-12T11:50:32.324Z,74.40
2018-04-12T11:52:59.879Z,73.30
2018-04-12T11:55:28.483Z,73.90
2018-04-12T11:57:56.781Z,72.90
2018-04-12T12:00:24.302Z,72.90
2018-04-12T12:02:51.887Z,73.10
2018-04-12T12:05:19.444Z,72.80
2018-04-12T12:07:46.936Z,72.30
2018-04-12T12:10:14.460Z,71.90
2018-04-12T12:12:42.149Z,71.90
2018-04-12T12:15:09.644Z,71.70
2018-04-12T12:17:38.000Z,73.60
2018-04-12T12:20:05.581Z,72.90
2018-04-12T12:22:33.858Z,73.40
2018-04-12T12:25:02.178Z,72.90
2018-04-12T12:27:29.839Z,72.90
2018-04-12T12:29:57.369Z,74.60
2018-04-12T12:32:25.646Z,75.80
2018-04-12T12:34:53.278Z,75.60
2018-04-12T12:37:21.540Z,73.50
2018-04-12T12:39:49.080Z,73.50
2018-04-12T12:42:16.694Z,74.10
2018-04-12T12:44:44.948Z,74.70
2018-04-12T12:47:13.239Z,71.70
2018-04-12T12:49:40.733Z,72.30
2018-04-12T12:52:08.313Z,73.50
2018-04-12T12:54:35.825Z,75.60
2018-04-12T12:57:04.131Z,77.20
2018-04-12T12:59:31.675Z,77.10
2018-04-12T13:01:59.939Z,76.90
2018-04-12T13:04:28.201Z,76.60
2018-04-12T13:06:56.482Z,75.50
2018-04-12T13:09:24.012Z,75.50
2018-04-12T13:11:51.604Z,75.60
2018-04-12T13:14:19.900Z,76.50
2018-04-12T13:16:47.400Z,76.50
2018-04-12T13:19:14.912Z,76.20
2018-04-12T13:21:43.164Z,73.30
2018-04-12T13:24:10.683Z,73.30
2018-04-12T13:26:38.181Z,74.70
2018-04-12T13:29:05.784Z,73.50
2018-04-12T13:31:33.280Z,74.10
2018-04-12T13:34:01.108Z,74.70
2018-04-12T13:36:28.722Z,73.60
2018-04-12T13:38:57.043Z,73.90
2018-04-12T13:41:24.517Z,73.50
2018-04-12T13:43:52.060Z,74.10
2018-04-12T13:46:29.567Z,74.50
2018-04-12T13:48:57.086Z,73.80
2018-04-12T13:51:25.340Z,75.90
2018-04-12T13:53:53.613Z,74.40
2018-04-12T13:56:21.187Z,74.30
2018-04-12T13:58:49.448Z,73.30
2018-04-12T14:01:17.036Z,73.30
2018-04-12T14:03:44.598Z,74.80
2018-04-12T14:06:12.108Z,71.50
2018-04-12T14:08:39.698Z,70.50
2018-04-12T14:11:07.962Z,71.20
2018-04-12T14:13:35.547Z,71.20
2018-04-12T14:16:03.821Z,71.90
2018-04-12T14:18:32.224Z,71.60
2018-04-12T14:20:59.737Z,71.50
2018-04-12T14:23:27.328Z,71.60
2018-04-12T14:25:55.314Z,71.50
2018-04-12T14:28:22.813Z,71.20
2018-04-12T14:30:51.100Z,70.60
2018-04-12T14:33:18.608Z,70.70
2018-04-12T14:35:46.257Z,69.40
2018-04-12T14:38:14.540Z,69.80
2018-04-12T14:40:42.101Z,69.80
2018-04-12T14:43:09.616Z,69.10
2018-04-12T14:45:37.180Z,68.50
2018-04-12T14:48:05.469Z,69.90
2018-04-12T14:50:33.785Z,69.20
2018-04-12T14:53:01.281Z,68.90
2018-04-12T14:55:28.772Z,67.30
2018-04-12T14:57:56.282Z,69.00
2018-04-12T15:00:23.859Z,69.60
2018-04-12T15:02:52.065Z,70.50
2018-04-12T15:05:19.609Z,69.90
2018-04-12T15:07:48.947Z,71.20
2018-04-12T15:10:16.484Z,71.10
2018-04-12T15:12:44.130Z,69.20
2018-04-12T15:15:12.397Z,69.10
2018-04-12T15:17:40.693Z,68.40
2018-04-12T15:20:08.963Z,67.80
2018-04-12T15:22:37.244Z,68.10
2018-04-12T15:25:04.777Z,68.00
2018-04-12T15:27:32.296Z,68.90
2018-04-12T15:29:59.884Z,67.70
2018-04-12T15:32:28.947Z,68.50
2018-04-12T15:34:57.194Z,69.00
2018-04-12T15:37:24.697Z,68.90
2018-04-12T15:39:52.241Z,66.80
2018-04-12T15:42:20.158Z,66.90
2018-04-12T15:44:48.465Z,67.60
2018-04-12T15:47:16.017Z,67.40
2018-04-12T15:49:43.632Z,67.90
2018-04-12T15:52:11.128Z,66.60
2018-04-12T15:54:39.435Z,67.30
2018-04-12T15:57:06.957Z,67.30
2018-04-12T15:59:35.221Z,67.80
2018-04-12T16:02:03.048Z,67.80
2018-04-12T16:04:30.537Z,65.60
2018-04-12T16:06:59.714Z,68.20
2018-04-12T16:09:27.468Z,68.10
2018-04-12T16:11:54.999Z,66.60
2018-04-12T16:14:22.520Z,66.70
2018-04-12T16:16:50.016Z,66.40
2018-04-12T16:19:17.537Z,66.40
2018-04-12T16:21:45.061Z,67.30
2018-04-12T16:24:12.707Z,67.00
2018-04-12T16:26:40.231Z,66.40
2018-04-12T16:29:08.688Z,66.00
2018-04-12T16:31:36.172Z,66.50
2018-04-12T16:34:04.476Z,68.00
2018-04-12T16:36:31.992Z,68.00
2018-04-12T16:39:00.457Z,67.90
2018-04-12T16:41:30.494Z,67.90
2018-04-12T16:43:58.985Z,67.40
2018-04-12T16:46:27.363Z,68.80
2018-04-12T16:48:55.673Z,69.10
2018-04-12T16:51:23.153Z,69.00
2018-04-12T16:53:50.667Z,68.10
2018-04-12T16:56:18.226Z,68.80
2018-04-12T16:58:45.809Z,68.40
2018-04-12T17:01:13.289Z,68.60
2018-04-12T17:03:40.901Z,69.40
2018-04-12T17:06:08.416Z,69.90
2018-04-12T17:08:35.927Z,70.50
2018-04-12T17:11:03.466Z,70.50
2018-04-12T17:13:31.858Z,71.40
2018-04-12T17:16:00.433Z,72.00
2018-04-12T17:18:28.171Z,71.90
2018-04-12T17:20:56.591Z,71.20
2018-04-12T17:23:24.338Z,71.70
2018-04-12T17:25:53.412Z,72.60
2018-04-12T17:28:21.702Z,72.70
2018-04-12T17:30:50.047Z,72.90
2018-04-12T17:33:17.662Z,72.90
2018-04-12T17:35:45.629Z,73.00
2018-04-12T17:38:13.941Z,73.40
2018-04-12T17:40:41.487Z,73.50
2018-04-12T17:43:08.995Z,73.80
2018-04-12T17:45:37.329Z,73.10
2018-04-12T17:48:05.226Z,73.60
2018-04-12T17:50:32.851Z,73.30
2018-04-12T17:53:00.329Z,73.70
2018-04-12T17:55:27.841Z,73.80
2018-04-12T17:57:55.398Z,74.10
2018-04-12T18:00:23.747Z,75.20
2018-04-12T18:02:51.289Z,75.10
2018-04-12T18:05:18.839Z,75.70
2018-04-12T18:07:46.379Z,76.20
2018-04-12T18:10:13.941Z,77.10
2018-04-12T18:12:41.507Z,77.60
2018-04-12T18:15:09.005Z,78.20
2018-04-12T18:17:36.523Z,78.50
2018-04-12T18:20:04.057Z,79.00
2018-04-12T18:22:31.584Z,79.40
2018-04-12T18:24:59.887Z,80.30
2018-04-12T18:27:28.218Z,80.60
2018-04-12T18:29:55.841Z,80.60
2018-04-12T18:32:23.377Z,81.10
2018-04-12T18:34:52.461Z,81.10
2018-04-12T18:37:20.861Z,81.30
2018-04-12T18:39:48.387Z,81.20
2018-04-12T18:42:15.953Z,80.00
2018-04-12T18:44:44.289Z,78.70
2018-04-12T18:47:11.811Z,78.60
2018-04-12T18:49:39.409Z,78.50
2018-04-12T18:52:06.901Z,78.40
2018-04-12T18:54:35.304Z,78.40
2018-04-12T18:57:03.595Z,77.90
2018-04-12T18:59:31.137Z,77.80
2018-04-12T19:01:59.415Z,78.30
2018-04-12T19:04:27.689Z,78.70
2018-04-12T19:06:56.002Z,78.90
2018-04-12T19:09:23.502Z,78.90
2018-04-12T19:11:51.030Z,79.30
2018-04-12T19:14:18.573Z,79.40
2018-04-12T19:16:46.923Z,79.40
2018-04-12T19:19:15.331Z,79.40
2018-04-12T19:21:42.959Z,79.30
2018-04-12T19:24:11.274Z,79.00
2018-04-12T19:26:38.790Z,79.00
2018-04-12T19:29:07.789Z,78.90
2018-04-12T19:31:36.088Z,78.50
2018-04-12T19:34:03.611Z,78.50
2018-04-12T19:36:31.197Z,78.30
2018-04-12T19:38:59.484Z,78.80
2018-04-12T19:41:27.036Z,78.80
2018-04-12T19:43:54.569Z,79.10
2018-04-12T19:46:22.140Z,78.90
2018-04-12T19:48:49.645Z,78.90
2018-04-12T19:51:17.184Z,78.80
2018-04-12T19:53:44.713Z,78.40
2018-04-12T19:56:13.045Z,78.50
2018-04-12T19:58:40.579Z,78.50
2018-04-12T20:01:08.117Z,78.50
2018-04-12T20:03:35.728Z,78.30
2018-04-12T20:06:03.588Z,78.50
2018-04-12T20:08:31.105Z,78.30
2018-04-12T20:10:58.836Z,78.40
2018-04-12T20:13:26.280Z,78.30
2018-04-12T20:15:53.815Z,78.50
2018-04-12T20:18:21.470Z,78.60
2018-04-12T20:20:48.994Z,78.90
2018-04-12T20:23:16.642Z,79.10
2018-04-12T20:25:44.209Z,79.10
2018-04-12T20:28:12.498Z,79.40
2018-04-12T20:30:40.018Z,79.40
2018-04-12T20:33:07.525Z,79.60
2018-04-12T20:35:35.009Z,79.70
2018-04-12T20:38:02.792Z,81.10
2018-04-12T20:40:30.325Z,81.60
2018-04-12T20:42:57.835Z,81.80
2018-04-12T20:45:26.123Z,82.30
2018-04-12T20:47:54.508Z,82.50
2018-04-12T20:50:22.834Z,82.60
2018-04-12T20:52:50.317Z,82.50
2018-04-12T20:55:18.619Z,82.50
2018-04-12T20:57:46.136Z,82.50
2018-04-12T21:00:13.702Z,82.80
2018-04-12T21:02:41.224Z,82.70
2018-04-12T21:05:08.765Z,82.70
2018-04-12T21:07:36.320Z,83.10
2018-04-12T21:10:03.819Z,82.60
2018-04-12T21:12:31.341Z,82.80
2018-04-12T21:14:58.886Z,82.80
2018-04-12T21:17:26.415Z,83.00
2018-04-12T21:19:53.975Z,83.10
2018-04-12T21:22:21.513Z,83.10
2018-04-12T21:24:49.033Z,83.00
2018-04-12T21:27:16.574Z,82.80
2018-04-12T21:29:44.948Z,83.50
2018-04-12T21:32:13.250Z,83.60
2018-04-12T21:34:40.792Z,83.50
2018-04-12T21:37:09.062Z,83.30
2018-04-12T21:39:37.366Z,83.30
2018-04-12T21:42:04.909Z,83.20
2018-04-12T21:44:33.332Z,82.80
2018-04-12T21:47:00.879Z,82.80
2018-04-12T21:49:28.424Z,82.50
2018-04-12T21:51:55.948Z,82.30
2018-04-12T21:54:24.280Z,82.80
2018-04-12T21:56:51.837Z,82.70
2018-04-12T21:59:19.358Z,83.20
2018-04-12T22:01:46.943Z,83.40
2018-04-12T22:04:14.433Z,83.60
2018-04-12T22:06:41.960Z,83.80
2018-04-12T22:09:09.522Z,84.10
2018-04-12T22:11:37.048Z,84.40
2018-04-12T22:14:05.432Z,84.90
2018-04-12T22:16:33.147Z,84.90
2018-04-12T22:19:00.679Z,85.50
2018-04-12T22:21:28.189Z,85.10
2018-04-12T22:23:55.750Z,85.70
2018-04-12T22:26:23.258Z,84.90
2018-04-12T22:28:50.885Z,84.50
2018-04-12T22:31:19.167Z,84.40
2018-04-12T22:33:47.482Z,84.40
2018-04-12T22:36:14.969Z,84.40
2018-04-12T22:38:42.557Z,84.10
2018-04-12T22:41:10.835Z,84.30
2018-04-12T22:43:39.221Z,84.80
2018-04-12T22:46:06.726Z,84.70
2018-04-12T22:48:34.231Z,84.70
2018-04-12T22:51:02.547Z,84.60
2018-04-12T22:53:30.064Z,84.50
2018-04-12T22:55:58.444Z,85.50
2018-04-12T22:58:26.727Z,88.60
2018-04-12T23:00:54.312Z,88.60
2018-04-12T23:03:21.804Z,89.40
2018-04-12T23:05:49.398Z,90.00
2018-04-12T23:08:18.154Z,90.50
2018-04-12T23:10:45.949Z,90.50
2018-04-12T23:13:14.224Z,90.20
2018-04-12T23:15:42.552Z,90.30
2018-04-12T23:18:10.071Z,90.30
2018-04-12T23:20:37.573Z,90.60
2018-04-12T23:23:05.369Z,90.40
2018-04-12T23:25:33.644Z,91.00
2018-04-12T23:28:01.214Z,90.70
2018-04-12T23:30:29.482Z,90.20
2018-04-12T23:32:57.785Z,90.60
2018-04-12T23:35:25.311Z,90.30
2018-04-12T23:37:52.814Z,90.20
2018-04-12T23:40:20.344Z,90.40
2018-04-12T23:42:48.617Z,90.40
2018-04-12T23:45:16.880Z,90.70
2018-04-12T23:47:44.390Z,90.70
2018-04-12T23:50:11.947Z,90.80
2018-04-12T23:52:39.461Z,91.10
2018-04-12T23:55:07.756Z,91.00
2018-04-12T23:57:35.264Z,91.00
